Time;durP1;ratioP1;P1;durP2;ratioP2;P2;SDS_P1;SDS_P2;PMS_P1;PMS_P2;Temp;Humidity;BMP_temperature;BMP_pressure;BME280_temperature;BME280_humidity;BME280_pressure;Samples;Min_cycle;Max_cycle;Signal;HPM_P1;HPM_P2
2022/08/26 00:02:11;;;;;;;18.95;12.25;;;21.80;99.90;;;;;;5069375;28;20889;-51
2022/08/26 00:04:41;;;;;;;16.27;11.20;;;21.70;99.90;;;;;;5069105;28;20709;-51
2022/08/26 00:07:09;;;;;;;15.18;11.70;;;21.60;99.90;;;;;;5061868;28;20213;-52
2022/08/26 00:09:38;;;;;;;14.45;10.55;;;21.50;99.90;;;;;;5066844;28;20205;-51
2022/08/26 00:12:09;;;;;;;14.30;10.38;;;21.40;99.90;;;;;;5069486;28;20240;-52
2022/08/26 00:14:40;;;;;;;20.02;10.35;;;21.40;99.90;;;;;;5068763;28;20746;-52
2022/08/26 00:17:09;;;;;;;15.45;11.20;;;21.40;99.90;;;;;;5069759;28;20224;-51
2022/08/26 00:19:37;;;;;;;13.90;10.15;;;21.40;99.90;;;;;;5068765;28;20883;-51
2022/08/26 00:22:06;;;;;;;15.93;10.77;;;21.30;99.90;;;;;;5069585;28;20208;-52
2022/08/26 00:24:34;;;;;;;14.98;10.40;;;21.30;99.90;;;;;;5068547;28;20225;-51
2022/08/26 00:27:02;;;;;;;17.80;10.02;;;21.20;99.90;;;;;;5068738;28;20205;-52
2022/08/26 00:29:33;;;;;;;15.68;10.07;;;21.10;99.90;;;;;;5065125;28;20240;-52
2022/08/26 00:32:05;;;;;;;19.55;10.43;;;21.20;99.90;;;;;;5065759;28;20197;-52
2022/08/26 00:34:33;;;;;;;14.90;10.05;;;21.20;99.90;;;;;;5062305;28;20233;-51
2022/08/26 00:37:01;;;;;;;15.50;10.70;;;21.10;99.90;;;;;;5067163;28;20204;-51
2022/08/26 00:39:31;;;;;;;16.73;10.23;;;21.10;99.90;;;;;;5060416;28;20737;-51
2022/08/26 00:42:00;;;;;;;13.60;10.73;;;21.00;99.90;;;;;;5068714;28;20674;-51
2022/08/26 00:44:29;;;;;;;20.95;11.27;;;21.00;99.90;;;;;;5068632;28;20228;-51
2022/08/26 00:47:02;;;;;;;14.60;10.48;;;20.90;99.90;;;;;;5068713;28;20217;-51
2022/08/26 00:49:37;;;;;;;21.65;10.88;;;20.90;99.90;;;;;;5068278;28;20237;-51
2022/08/26 00:52:09;;;;;;;18.02;10.80;;;20.80;99.90;;;;;;5068762;28;20196;-52
2022/08/26 00:54:45;;;;;;;15.57;10.35;;;20.80;99.90;;;;;;5068871;28;20256;-50
2022/08/26 00:57:16;;;;;;;14.85;10.38;;;20.80;99.90;;;;;;5069120;28;20212;-50
2022/08/26 00:59:46;;;;;;;18.25;11.20;;;20.70;99.90;;;;;;5068834;28;20209;-52
2022/08/26 01:02:15;;;;;;;14.02;11.35;;;20.70;99.90;;;;;;5068614;28;20706;-51
2022/08/26 01:04:49;;;;;;;16.13;11.27;;;20.70;99.90;;;;;;5068626;28;20237;-51
2022/08/26 01:07:24;;;;;;;13.77;10.82;;;20.60;99.90;;;;;;5059732;28;20209;-51
2022/08/26 01:09:53;;;;;;;16.02;10.57;;;20.60;99.90;;;;;;5040565;28;20239;-52
2022/08/26 01:12:23;;;;;;;19.55;11.60;;;20.50;99.90;;;;;;5069024;28;20282;-51
2022/08/26 01:14:52;;;;;;;14.00;11.45;;;20.50;99.90;;;;;;5060296;28;20233;-51
2022/08/26 01:17:20;;;;;;;18.45;10.80;;;20.50;99.90;;;;;;5069115;28;20232;-52
2022/08/26 01:19:51;;;;;;;14.93;10.27;;;20.50;99.90;;;;;;5068064;28;20259;-51
2022/08/26 01:22:22;;;;;;;15.20;10.43;;;20.50;99.90;;;;;;5070724;28;20229;-52
2022/08/26 01:24:57;;;;;;;16.67;10.48;;;20.50;99.90;;;;;;5071829;28;20247;-51
2022/08/26 01:27:30;;;;;;;14.40;10.50;;;20.40;99.90;;;;;;5071982;28;20197;-51
2022/08/26 01:30:01;;;;;;;17.00;10.95;;;20.40;99.90;;;;;;5069518;28;20292;-52
2022/08/26 01:32:31;;;;;;;16.58;10.60;;;20.40;99.90;;;;;;5064778;28;20206;-51
2022/08/26 01:35:00;;;;;;;13.63;10.45;;;20.30;99.90;;;;;;5069081;28;20225;-51
2022/08/26 01:37:35;;;;;;;13.68;9.82;;;20.30;99.90;;;;;;5071503;28;20209;-52
2022/08/26 01:40:13;;;;;;;12.82;10.80;;;20.30;99.90;;;;;;5071939;28;21698;-52
2022/08/26 01:42:45;;;;;;;16.42;11.52;;;20.20;99.90;;;;;;5071005;28;20232;-51
2022/08/26 01:45:18;;;;;;;18.60;11.73;;;20.20;99.90;;;;;;5071516;28;20205;-52
2022/08/26 01:47:48;;;;;;;15.60;11.18;;;20.20;99.90;;;;;;5071666;28;20725;-51
2022/08/26 01:50:26;;;;;;;16.85;10.88;;;20.10;99.90;;;;;;5071233;28;20622;-51
2022/08/26 01:52:59;;;;;;;15.82;11.25;;;20.10;99.90;;;;;;5071758;28;20240;-51
2022/08/26 01:55:29;;;;;;;15.68;10.85;;;20.10;99.90;;;;;;5071372;28;20250;-51
2022/08/26 01:58:04;;;;;;;17.02;10.88;;;20.00;99.90;;;;;;5072068;28;20255;-51
2022/08/26 02:00:34;;;;;;;14.25;11.10;;;20.00;99.90;;;;;;5071103;28;20258;-52
2022/08/26 02:03:16;;;;;;;14.57;10.93;;;20.00;99.90;;;;;;5071649;28;20243;-52
2022/08/26 02:05:46;;;;;;;17.65;11.13;;;20.00;99.90;;;;;;5071464;28;20346;-51
2022/08/26 02:08:19;;;;;;;17.02;11.82;;;19.90;99.90;;;;;;5061176;28;20636;-51
2022/08/26 02:10:53;;;;;;;14.95;11.75;;;19.90;99.90;;;;;;5063819;28;20296;-51
2022/08/26 02:13:24;;;;;;;20.25;12.23;;;19.90;99.90;;;;;;5070882;28;20252;-52
2022/08/26 02:15:53;;;;;;;21.38;11.88;;;19.90;99.90;;;;;;5059901;28;20205;-51
2022/08/26 02:18:23;;;;;;;15.88;11.43;;;19.80;99.90;;;;;;5071195;28;20241;-51
2022/08/26 02:20:54;;;;;;;17.17;11.57;;;19.80;99.90;;;;;;5070874;28;20266;-52
2022/08/26 02:23:22;;;;;;;15.68;11.27;;;19.80;99.90;;;;;;5071295;28;20265;-51
2022/08/26 02:25:56;;;;;;;18.98;12.00;;;19.80;99.90;;;;;;5070975;28;20251;-51
2022/08/26 02:28:26;;;;;;;15.02;11.73;;;19.80;99.90;;;;;;5068944;28;20201;-51
2022/08/26 02:30:55;;;;;;;17.92;12.13;;;19.70;99.90;;;;;;5071356;28;20212;-51
2022/08/26 02:33:23;;;;;;;18.55;11.77;;;19.70;99.90;;;;;;5060886;28;20249;-52
2022/08/26 02:35:51;;;;;;;17.48;12.07;;;19.70;99.90;;;;;;5070677;28;20209;-51
2022/08/26 02:38:19;;;;;;;16.67;11.80;;;19.70;99.90;;;;;;5070673;28;20201;-52
2022/08/26 02:40:48;;;;;;;16.92;12.13;;;19.60;99.90;;;;;;5070713;28;20244;-52
2022/08/26 02:43:19;;;;;;;18.15;11.60;;;19.60;99.90;;;;;;5069101;28;20229;-51
2022/08/26 02:46:00;;;;;;;15.65;11.50;;;19.60;99.90;;;;;;5061451;28;20314;-51
2022/08/26 02:48:29;;;;;;;16.88;11.77;;;19.60;99.90;;;;;;5069785;28;20208;-51
2022/08/26 02:50:59;;;;;;;16.50;12.02;;;19.60;99.90;;;;;;5063376;28;20206;-51
2022/08/26 02:53:27;;;;;;;17.35;12.57;;;19.60;99.90;;;;;;5066669;28;20233;-52
2022/08/26 02:55:59;;;;;;;16.38;10.95;;;19.50;99.90;;;;;;5070492;28;20236;-51
2022/08/26 02:58:29;;;;;;;16.33;11.93;;;19.50;99.90;;;;;;5067259;28;20211;-51
2022/08/26 03:00:57;;;;;;;14.55;11.43;;;19.50;99.90;;;;;;5069850;28;20263;-51
2022/08/26 03:03:26;;;;;;;16.67;12.32;;;19.40;99.90;;;;;;5070290;28;20271;-51
2022/08/26 03:05:54;;;;;;;16.33;12.70;;;19.50;99.90;;;;;;5070016;28;20201;-51
2022/08/26 03:08:22;;;;;;;14.23;12.38;;;19.40;99.90;;;;;;5065815;28;20262;-52
2022/08/26 03:10:52;;;;;;;17.30;11.82;;;19.40;99.90;;;;;;5062996;28;20201;-52
2022/08/26 03:13:20;;;;;;;15.70;12.38;;;19.30;99.90;;;;;;5069630;28;20273;-52
2022/08/26 03:15:49;;;;;;;15.48;12.50;;;19.30;99.90;;;;;;5069899;28;20209;-52
2022/08/26 03:18:17;;;;;;;17.67;12.05;;;19.30;99.90;;;;;;5069819;28;20595;-52
2022/08/26 03:20:47;;;;;;;16.75;12.27;;;19.20;99.90;;;;;;5059241;28;20619;-51
2022/08/26 03:23:15;;;;;;;15.93;12.45;;;19.20;99.90;;;;;;5069722;28;20669;-51
2022/08/26 03:25:49;;;;;;;20.33;12.73;;;19.20;99.90;;;;;;5069684;28;20631;-51
2022/08/26 03:28:17;;;;;;;15.05;11.63;;;19.20;99.90;;;;;;5062499;28;20205;-51
2022/08/26 03:30:46;;;;;;;18.73;12.85;;;19.20;99.90;;;;;;5063899;28;20689;-51
2022/08/26 03:33:17;;;;;;;18.30;13.02;;;19.20;99.90;;;;;;5062285;28;20714;-51
2022/08/26 03:35:47;;;;;;;20.80;12.45;;;19.20;99.90;;;;;;5069420;28;20213;-51
2022/08/26 03:38:18;;;;;;;21.00;13.25;;;19.10;99.90;;;;;;5069947;28;20205;-51
2022/08/26 03:40:47;;;;;;;18.60;12.55;;;19.20;99.90;;;;;;5068873;28;20213;-51
2022/08/26 03:43:18;;;;;;;17.65;12.98;;;19.20;99.90;;;;;;5067619;28;20256;-51
2022/08/26 03:45:46;;;;;;;18.00;12.75;;;19.20;99.90;;;;;;5060736;28;20231;-51
2022/08/26 03:48:14;;;;;;;15.80;12.32;;;19.20;99.90;;;;;;5069380;28;20666;-51
2022/08/26 03:50:44;;;;;;;15.90;12.80;;;19.20;99.90;;;;;;5069400;28;20239;-52
2022/08/26 03:53:14;;;;;;;14.55;13.02;;;19.10;99.90;;;;;;5069015;28;20221;-52
2022/08/26 03:55:42;;;;;;;17.38;12.93;;;19.10;99.90;;;;;;5068963;28;20254;-52
2022/08/26 03:58:11;;;;;;;19.90;13.80;;;19.10;99.90;;;;;;5069271;28;20212;-51
2022/08/26 04:00:39;;;;;;;18.45;12.70;;;19.10;99.90;;;;;;5069544;28;20626;-51
2022/08/26 04:03:07;;;;;;;17.75;12.60;;;19.10;99.90;;;;;;5069014;28;20769;-52
2022/08/26 04:05:37;;;;;;;16.92;12.52;;;19.10;99.90;;;;;;5068760;28;20208;-51
2022/08/26 04:08:07;;;;;;;19.83;13.45;;;19.10;99.90;;;;;;5056788;28;20294;-51
2022/08/26 04:10:37;;;;;;;21.08;13.13;;;19.10;99.90;;;;;;5059770;28;20213;-51
2022/08/26 04:13:05;;;;;;;17.58;13.38;;;19.10;99.90;;;;;;5065088;28;20594;-52
2022/08/26 04:15:34;;;;;;;17.35;12.40;;;19.10;99.90;;;;;;5069499;28;20257;-51
2022/08/26 04:18:03;;;;;;;17.40;11.88;;;19.00;99.90;;;;;;5069027;28;20236;-52
2022/08/26 04:20:31;;;;;;;20.40;13.23;;;19.00;99.90;;;;;;5069233;28;20209;-51
2022/08/26 04:22:59;;;;;;;19.10;13.20;;;19.00;99.90;;;;;;5041531;28;20710;-51
2022/08/26 04:25:28;;;;;;;16.02;12.63;;;19.00;99.90;;;;;;5069254;28;20204;-52
2022/08/26 04:27:56;;;;;;;18.77;12.73;;;18.90;99.90;;;;;;5065142;28;20206;-51
2022/08/26 04:30:25;;;;;;;17.85;12.85;;;19.00;99.90;;;;;;5060398;28;20200;-51
2022/08/26 04:32:53;;;;;;;17.80;14.13;;;18.90;99.90;;;;;;5061454;28;20874;-51
2022/08/26 04:35:21;;;;;;;17.23;13.63;;;18.90;99.90;;;;;;5067019;28;20209;-51
2022/08/26 04:37:54;;;;;;;17.02;12.50;;;19.00;99.90;;;;;;5043330;28;20205;-51
2022/08/26 04:40:22;;;;;;;18.08;12.65;;;19.00;99.90;;;;;;5069120;28;20730;-51
2022/08/26 04:42:55;;;;;;;17.65;13.13;;;19.00;99.90;;;;;;5069193;28;20252;-51
2022/08/26 04:45:24;;;;;;;16.13;12.80;;;19.00;99.90;;;;;;5065846;28;20217;-51
2022/08/26 04:47:56;;;;;;;16.35;12.57;;;19.00;99.90;;;;;;5068703;28;20213;-51
2022/08/26 04:50:25;;;;;;;18.00;13.02;;;19.10;99.90;;;;;;5068449;28;20262;-52
2022/08/26 04:52:54;;;;;;;18.33;12.82;;;19.10;99.90;;;;;;5068788;28;20288;-52
2022/08/26 04:55:23;;;;;;;18.58;13.00;;;19.10;99.90;;;;;;5068170;28;20579;-52
2022/08/26 04:58:08;;;;;;;19.35;12.90;;;19.10;99.90;;;;;;5072123;28;20666;-51
2022/08/26 05:00:37;;;;;;;20.52;13.10;;;19.10;99.90;;;;;;5072869;28;20209;-51
2022/08/26 05:03:06;;;;;;;18.05;12.75;;;19.20;99.90;;;;;;5072485;28;20256;-52
2022/08/26 05:05:42;;;;;;;15.55;11.77;;;19.40;99.90;;;;;;5072484;28;20578;-52
2022/08/26 05:08:11;;;;;;;19.85;13.55;;;19.60;99.90;;;;;;5063791;28;20193;-51
2022/08/26 05:10:40;;;;;;;14.88;12.00;;;19.70;99.90;;;;;;5072255;28;20212;-52
2022/08/26 05:13:12;;;;;;;16.58;12.15;;;19.70;99.90;;;;;;5072674;28;20221;-51
2022/08/26 05:15:43;;;;;;;19.30;12.48;;;19.70;99.90;;;;;;5072150;28;20213;-52
2022/08/26 05:18:13;;;;;;;16.08;12.15;;;19.80;99.90;;;;;;5072472;28;20212;-51
2022/08/26 05:20:43;;;;;;;16.48;11.95;;;20.00;99.90;;;;;;5071919;28;20205;-52
2022/08/26 05:23:14;;;;;;;14.80;11.50;;;20.00;99.90;;;;;;5072227;28;20225;-51
2022/08/26 05:25:44;;;;;;;17.00;12.55;;;20.10;99.90;;;;;;5071827;28;20213;-51
2022/08/26 05:28:16;;;;;;;21.45;12.65;;;20.20;99.90;;;;;;5068927;28;20256;-52
2022/08/26 05:30:44;;;;;;;15.07;11.98;;;20.30;99.90;;;;;;5072316;28;20212;-52
2022/08/26 05:33:13;;;;;;;19.02;11.77;;;20.50;99.90;;;;;;5056640;28;20227;-51
2022/08/26 05:35:43;;;;;;;17.95;11.18;;;20.50;99.90;;;;;;5042386;28;20206;-52
2022/08/26 05:38:14;;;;;;;20.25;12.55;;;20.60;99.90;;;;;;5049669;28;20252;-52
2022/08/26 05:40:45;;;;;;;20.63;11.75;;;20.70;99.90;;;;;;5071586;28;20221;-52
2022/08/26 05:43:14;;;;;;;16.95;11.82;;;20.80;99.90;;;;;;5070365;28;20233;-52
2022/08/26 05:45:46;;;;;;;18.10;11.55;;;20.80;99.90;;;;;;5071430;28;20607;-52
2022/08/26 05:48:16;;;;;;;15.75;11.30;;;20.90;99.90;;;;;;5071444;28;20771;-52
2022/08/26 05:50:47;;;;;;;16.30;12.60;;;21.00;99.90;;;;;;5071836;28;20270;-52
2022/08/26 05:53:19;;;;;;;14.73;11.82;;;21.10;99.90;;;;;;5071654;28;20255;-52
2022/08/26 05:55:49;;;;;;;17.00;11.57;;;21.30;99.90;;;;;;5063101;28;20197;-51
2022/08/26 05:58:20;;;;;;;16.27;11.18;;;21.30;99.90;;;;;;5071415;28;20620;-52
2022/08/26 06:00:57;;;;;;;18.65;12.50;;;21.40;99.90;;;;;;5071459;28;20201;-51
2022/08/26 06:03:26;;;;;;;14.77;11.50;;;21.50;99.90;;;;;;5071193;28;20316;-52
2022/08/26 06:05:54;;;;;;;18.60;11.40;;;21.60;99.90;;;;;;5071288;28;20209;-52
2022/08/26 06:08:22;;;;;;;17.52;11.95;;;21.60;99.90;;;;;;5064941;28;20648;-52
2022/08/26 06:10:52;;;;;;;17.48;11.93;;;21.60;99.90;;;;;;5070846;28;20367;-51
2022/08/26 06:13:25;;;;;;;15.77;11.68;;;21.70;99.90;;;;;;5063660;28;20290;-52
2022/08/26 06:15:55;;;;;;;15.40;11.07;;;21.80;99.90;;;;;;5071643;28;20267;-53
2022/08/26 06:18:26;;;;;;;16.40;11.30;;;22.00;99.90;;;;;;5070729;28;20295;-52
2022/08/26 06:20:55;;;;;;;13.77;10.50;;;22.50;99.90;;;;;;5071501;28;22180;-52
2022/08/26 06:26:18;;;;;;;16.65;11.55;;;23.60;99.90;;;;;;5013553;28;20257;-52
2022/08/26 06:28:47;;;;;;;18.33;11.48;;;24.20;99.90;;;;;;5059771;28;20205;-53
2022/08/26 06:31:16;;;;;;;16.23;11.98;;;24.70;99.90;;;;;;5068427;28;20205;-52
2022/08/26 06:33:44;;;;;;;16.20;11.90;;;25.10;99.90;;;;;;5062713;28;20228;-52
2022/08/26 06:36:18;;;;;;;18.13;12.05;;;25.60;99.90;;;;;;5066603;28;20256;-52
2022/08/26 06:38:47;;;;;;;15.90;11.50;;;26.00;99.90;;;;;;5071008;28;20274;-53
2022/08/26 06:41:16;;;;;;;15.60;11.48;;;26.30;99.90;;;;;;5070089;28;20277;-52
2022/08/26 06:43:44;;;;;;;18.33;12.13;;;26.50;99.90;;;;;;5069665;28;20233;-53
2022/08/26 06:46:16;;;;;;;14.93;11.75;;;26.40;99.90;;;;;;5066208;28;20775;-52
2022/08/26 06:48:45;;;;;;;18.60;11.48;;;26.70;99.90;;;;;;5043820;28;20284;-52
2022/08/26 06:51:15;;;;;;;14.13;10.73;;;26.90;99.90;;;;;;5070392;28;20220;-51
2022/08/26 06:53:46;;;;;;;17.27;11.30;;;27.20;99.90;;;;;;5070139;28;20282;-53
2022/08/26 06:56:17;;;;;;;13.60;9.77;;;27.60;99.90;;;;;;5069738;28;20240;-52
2022/08/26 06:58:46;;;;;;;14.38;10.13;;;28.00;99.90;;;;;;5069602;28;20258;-52
2022/08/26 07:01:17;;;;;;;16.33;10.50;;;28.20;99.90;;;;;;5070628;28;20254;-52
2022/08/26 07:03:47;;;;;;;14.85;9.38;;;28.40;99.90;;;;;;5065828;28;20316;-52
2022/08/26 07:06:17;;;;;;;15.15;10.20;;;28.50;99.90;;;;;;5052403;28;20260;-53
2022/08/26 07:08:45;;;;;;;15.15;9.95;;;28.60;99.90;;;;;;5051674;28;20213;-53
2022/08/26 07:11:14;;;;;;;14.27;9.95;;;28.40;99.90;;;;;;5069041;28;20208;-53
2022/08/26 07:13:43;;;;;;;13.80;8.90;;;28.70;99.90;;;;;;5063626;28;20244;-52
2022/08/26 07:16:16;;;;;;;12.10;8.52;;;28.90;99.90;;;;;;5069323;28;20755;-52
2022/08/26 07:18:47;;;;;;;12.75;9.20;;;29.10;99.90;;;;;;5069515;28;20208;-52
2022/08/26 07:21:16;;;;;;;18.52;8.38;;;29.40;99.90;;;;;;5069418;28;20201;-53
2022/08/26 07:23:45;;;;;;;15.77;7.75;;;29.50;99.90;;;;;;5070165;28;20236;-52
2022/08/26 07:26:17;;;;;;;12.85;8.30;;;29.80;99.90;;;;;;5069572;28;20266;-52
2022/08/26 07:28:47;;;;;;;10.90;7.90;;;29.60;99.90;;;;;;5059299;28;20202;-53
2022/08/26 07:31:17;;;;;;;10.95;8.63;;;29.80;99.90;;;;;;5067365;28;20251;-53
2022/08/26 07:33:45;;;;;;;12.88;8.85;;;29.90;99.90;;;;;;5061935;28;20307;-51
2022/08/26 07:36:15;;;;;;;12.35;8.57;;;30.00;99.90;;;;;;5069797;28;20212;-51
2022/08/26 07:38:44;;;;;;;11.57;8.13;;;30.10;99.90;;;;;;5069383;28;20231;-51
2022/08/26 07:41:13;;;;;;;12.65;8.30;;;30.30;99.90;;;;;;5069479;28;20204;-52
2022/08/26 07:43:41;;;;;;;13.25;8.40;;;30.20;99.90;;;;;;5066511;28;20217;-53
2022/08/26 07:46:12;;;;;;;13.77;8.80;;;30.30;99.90;;;;;;5069031;28;20241;-53
2022/08/26 07:48:45;;;;;;;12.68;8.38;;;30.30;99.90;;;;;;5069234;28;20200;-51
2022/08/26 07:51:14;;;;;;;13.20;8.38;;;30.10;99.90;;;;;;5069513;28;20278;-53
2022/08/26 07:53:42;;;;;;;12.63;8.38;;;29.90;99.90;;;;;;5069035;28;20303;-52
2022/08/26 07:56:15;;;;;;;11.73;7.95;;;30.10;99.90;;;;;;5069178;28;20266;-53
2022/08/26 07:58:43;;;;;;;17.88;8.73;;;30.00;99.90;;;;;;5069291;28;20205;-52
2022/08/26 08:01:15;;;;;;;12.88;7.90;;;30.00;99.90;;;;;;5069771;28;20197;-52
2022/08/26 08:03:45;;;;;;;12.60;8.07;;;30.00;99.90;;;;;;5069046;28;20324;-52
2022/08/26 08:06:17;;;;;;;14.15;9.07;;;29.90;99.90;;;;;;5068055;28;20193;-51
2022/08/26 08:08:46;;;;;;;13.68;8.20;;;29.60;99.90;;;;;;5062734;28;20212;-52
2022/08/26 08:11:14;;;;;;;12.40;8.55;;;29.40;99.90;;;;;;5068365;28;20213;-52
2022/08/26 08:13:42;;;;;;;12.07;8.75;;;29.40;99.90;;;;;;5039841;28;20676;-52
2022/08/26 08:16:10;;;;;;;10.98;8.57;;;29.20;99.90;;;;;;5060023;28;20586;-53
2022/08/26 08:18:39;;;;;;;11.07;8.07;;;29.00;99.90;;;;;;5069076;28;20213;-52
2022/08/26 08:21:10;;;;;;;14.05;8.50;;;28.90;99.90;;;;;;5068888;28;20232;-52
2022/08/26 08:23:52;;;;;;;12.40;8.40;;;28.70;99.90;;;;;;5069131;28;20229;-52
2022/08/26 08:26:20;;;;;;;12.23;8.25;;;28.70;99.90;;;;;;5068927;28;20201;-52
2022/08/26 08:28:48;;;;;;;12.73;8.43;;;28.80;99.90;;;;;;5059024;28;20205;-52
2022/08/26 08:31:20;;;;;;;11.38;8.40;;;28.90;99.90;;;;;;5071215;28;20251;-51
2022/08/26 08:34:08;;;;;;;11.25;8.38;;;28.90;99.90;;;;;;5057800;28;20323;-51
2022/08/26 08:36:38;;;;;;;9.55;8.23;;;28.80;99.90;;;;;;5072801;28;20685;-52
2022/08/26 08:39:06;;;;;;;11.90;8.32;;;28.80;99.90;;;;;;5071500;28;20197;-52
2022/08/26 08:41:48;;;;;;;10.82;8.32;;;28.80;99.90;;;;;;5071029;28;20662;-52
2022/08/26 08:44:20;;;;;;;15.88;8.10;;;28.80;99.90;;;;;;5071785;28;20307;-51
2022/08/26 08:46:54;;;;;;;11.85;7.82;;;28.80;99.90;;;;;;5073020;28;20208;-52
2022/08/26 08:49:25;;;;;;;9.40;7.53;;;29.00;99.90;;;;;;5073118;28;20231;-52
2022/08/26 08:52:02;;;;;;;9.23;8.02;;;29.20;99.90;;;;;;5071983;28;20219;-52
2022/08/26 08:54:31;;;;;;;11.95;8.20;;;29.30;99.90;;;;;;5072906;28;20632;-52
2022/08/26 08:57:05;;;;;;;10.55;8.35;;;29.30;99.90;;;;;;5072238;28;20258;-52
2022/08/26 08:59:37;;;;;;;11.60;7.95;;;29.40;99.90;;;;;;5073052;28;20228;-51
2022/08/26 09:02:15;;;;;;;10.95;7.75;;;29.40;99.90;;;;;;5072354;28;20205;-52
2022/08/26 09:05:09;;;;;;;12.05;7.63;;;29.60;99.90;;;;;;5072544;28;20236;-52
2022/08/26 09:07:48;;;;;;;12.25;8.20;;;29.80;99.90;;;;;;5066471;28;20219;-52
2022/08/26 09:10:30;;;;;;;8.80;7.90;;;29.90;99.90;;;;;;5072556;28;20212;-52
2022/08/26 09:13:00;;;;;;;9.95;7.38;;;30.00;99.90;;;;;;5064954;28;20286;-52
2022/08/26 09:15:36;;;;;;;10.07;7.85;;;30.10;99.90;;;;;;5072497;28;20665;-52
2022/08/26 09:18:11;;;;;;;9.40;7.38;;;30.20;99.90;;;;;;5045994;28;20743;-51
2022/08/26 09:20:48;;;;;;;9.45;7.57;;;30.20;99.90;;;;;;5072633;28;20243;-52
2022/08/26 09:23:18;;;;;;;9.98;7.18;;;30.30;99.90;;;;;;5072108;28;20297;-52
2022/08/26 09:25:49;;;;;;;9.60;7.07;;;30.40;99.90;;;;;;5071674;28;20252;-51
2022/08/26 09:28:19;;;;;;;10.27;7.30;;;30.50;99.90;;;;;;5064666;28;20222;-53
2022/08/26 09:31:00;;;;;;;9.52;7.10;;;30.60;99.90;;;;;;5055931;28;20202;-52
2022/08/26 09:33:31;;;;;;;8.95;7.13;;;30.70;99.90;;;;;;5055641;28;20304;-52
2022/08/26 09:36:24;;;;;;;10.63;7.60;;;30.40;99.90;;;;;;5071683;28;20560;-52
2022/08/26 09:38:54;;;;;;;13.40;7.25;;;30.20;99.90;;;;;;5071926;28;20211;-51
2022/08/26 09:41:25;;;;;;;10.13;7.20;;;30.00;99.90;;;;;;5056998;28;20266;-53
2022/08/26 09:44:12;;;;;;;10.15;6.93;;;29.90;99.90;;;;;;5068888;28;20232;-53
2022/08/26 09:46:46;;;;;;;6.70;6.07;;;29.80;99.90;;;;;;5068269;28;20945;-51
2022/08/26 09:49:25;;;;;;;10.27;6.63;;;29.90;99.90;;;;;;5072020;28;20900;-52
2022/08/26 09:52:10;;;;;;;8.15;6.03;;;30.20;99.90;;;;;;5071748;28;20830;-52
2022/08/26 09:54:40;;;;;;;9.65;5.82;;;30.50;99.30;;;;;;5071467;28;20363;-52
2022/08/26 09:57:27;;;;;;;6.25;5.65;;;30.60;98.40;;;;;;5071407;28;20201;-52
2022/08/26 09:59:56;;;;;;;6.32;5.72;;;30.50;97.40;;;;;;5071709;28;20634;-52
2022/08/26 10:02:42;;;;;;;7.97;5.50;;;30.50;97.00;;;;;;5070067;28;20646;-52
2022/08/26 10:05:26;;;;;;;6.15;5.40;;;30.20;97.30;;;;;;5071407;28;20232;-52
2022/08/26 10:07:57;;;;;;;8.68;6.22;;;29.90;97.20;;;;;;5065307;28;20216;-52
2022/08/26 10:10:33;;;;;;;6.28;5.65;;;29.90;97.20;;;;;;5071591;28;20236;-52
2022/08/26 10:13:07;;;;;;;6.93;6.07;;;29.90;96.90;;;;;;5062722;28;20580;-51
2022/08/26 10:15:44;;;;;;;6.22;5.53;;;29.90;97.30;;;;;;5071420;28;20208;-52
2022/08/26 10:18:22;;;;;;;6.50;5.50;;;29.80;97.00;;;;;;5052229;28;20194;-52
2022/08/26 10:20:56;;;;;;;6.25;5.60;;;29.60;97.00;;;;;;5062323;28;20208;-52
2022/08/26 10:23:28;;;;;;;8.60;5.65;;;29.50;96.90;;;;;;5070259;28;20312;-52
2022/08/26 10:26:03;;;;;;;6.63;5.55;;;29.40;96.50;;;;;;5070115;28;20232;-52
2022/08/26 10:28:38;;;;;;;7.65;5.93;;;29.40;96.80;;;;;;5061482;28;20209;-52
2022/08/26 10:31:13;;;;;;;10.13;5.95;;;29.30;96.70;;;;;;5066422;28;20212;-52
2022/08/26 10:33:42;;;;;;;6.80;5.60;;;29.30;97.40;;;;;;5063567;28;20267;-52
2022/08/26 10:39:06;;;;;;;10.43;5.97;;;29.40;96.70;;;;;;5070844;28;20213;-52
2022/08/26 10:41:42;;;;;;;6.55;5.95;;;29.40;96.70;;;;;;5069917;28;20287;-52
2022/08/26 10:44:16;;;;;;;9.13;5.90;;;29.50;96.30;;;;;;5069832;28;20217;-52
2022/08/26 10:46:49;;;;;;;6.80;5.50;;;29.50;96.60;;;;;;5069771;28;20270;-53
2022/08/26 10:49:18;;;;;;;6.90;6.10;;;29.60;96.60;;;;;;5062659;28;20201;-52
2022/08/26 10:51:54;;;;;;;8.13;6.28;;;29.60;96.80;;;;;;5069770;28;20270;-52
2022/08/26 10:54:29;;;;;;;8.40;5.78;;;29.60;96.20;;;;;;5068670;28;20247;-52
2022/08/26 10:57:04;;;;;;;6.68;6.05;;;29.60;96.10;;;;;;5069998;28;20201;-52
2022/08/26 10:59:48;;;;;;;8.07;6.05;;;29.60;95.80;;;;;;5070826;28;20231;-52
2022/08/26 11:02:25;;;;;;;7.10;6.18;;;29.50;95.80;;;;;;5069243;28;20688;-51
2022/08/26 11:04:57;;;;;;;7.38;6.68;;;29.50;96.70;;;;;;5070328;28;20220;-52
2022/08/26 11:07:41;;;;;;;7.50;6.85;;;29.50;97.50;;;;;;5068610;28;20228;-52
2022/08/26 11:10:32;;;;;;;8.98;7.15;;;29.30;98.00;;;;;;5070031;28;20205;-52
2022/08/26 11:13:03;;;;;;;8.00;6.85;;;29.30;98.30;;;;;;5070198;28;20311;-52
2022/08/26 11:15:59;;;;;;;8.27;7.47;;;29.30;98.40;;;;;;5069827;28;20217;-51
2022/08/26 11:18:45;;;;;;;10.23;7.47;;;29.30;98.20;;;;;;5033761;28;20218;-52
2022/08/26 11:21:51;;;;;;;10.55;7.18;;;29.30;98.70;;;;;;5049016;28;20193;-52
2022/08/26 11:24:45;;;;;;;7.72;7.03;;;29.10;98.10;;;;;;5049956;28;20279;-52
2022/08/26 11:28:01;;;;;;;8.57;6.63;;;29.10;98.60;;;;;;5049632;28;20222;-51
2022/08/26 11:30:49;;;;;;;7.13;6.53;;;29.10;98.70;;;;;;5041349;28;20645;-52
2022/08/26 11:33:56;;;;;;;8.98;6.53;;;29.00;97.80;;;;;;5049134;28;20261;-52
2022/08/26 11:36:39;;;;;;;7.00;6.30;;;29.00;97.70;;;;;;5049685;28;20559;-51
2022/08/26 11:39:22;;;;;;;7.45;6.70;;;28.80;96.80;;;;;;5050162;28;20641;-52
2022/08/26 11:41:54;;;;;;;7.30;6.60;;;28.60;96.90;;;;;;5052283;28;20232;-52
2022/08/26 11:44:27;;;;;;;7.47;6.78;;;28.70;97.30;;;;;;5068949;28;20652;-52
2022/08/26 11:47:01;;;;;;;7.00;6.40;;;28.80;97.20;;;;;;5069451;28;20229;-53
2022/08/26 11:49:31;;;;;;;8.85;6.90;;;28.90;97.60;;;;;;5061589;28;20205;-52
2022/08/26 11:52:16;;;;;;;8.60;6.70;;;28.80;97.60;;;;;;5069734;28;20670;-52
2022/08/26 11:55:02;;;;;;;8.35;6.72;;;28.90;98.20;;;;;;5068684;28;20598;-53
2022/08/26 11:57:32;;;;;;;11.40;6.60;;;28.90;98.10;;;;;;5069494;28;20689;-51
2022/08/26 12:00:01;;;;;;;7.60;6.30;;;28.90;98.50;;;;;;5069806;28;20208;-53
2022/08/26 12:02:32;;;;;;;8.75;7.05;;;29.00;99.00;;;;;;5069357;28;20218;-52
2022/08/26 12:05:01;;;;;;;7.40;6.65;;;29.00;99.40;;;;;;5068634;28;20713;-52
2022/08/26 12:07:30;;;;;;;8.25;6.50;;;29.00;99.50;;;;;;5063133;28;20220;-52
2022/08/26 12:10:03;;;;;;;8.70;6.40;;;28.80;99.60;;;;;;5069036;28;20209;-52
2022/08/26 12:12:37;;;;;;;8.43;5.97;;;28.60;98.60;;;;;;5069688;28;20197;-52
2022/08/26 12:15:16;;;;;;;9.90;6.40;;;28.50;99.00;;;;;;5068875;28;20266;-52
2022/08/26 12:17:48;;;;;;;6.45;5.55;;;28.30;98.40;;;;;;5069389;28;20219;-53
2022/08/26 12:20:44;;;;;;;6.47;5.85;;;28.30;98.20;;;;;;5068916;28;20212;-52
2022/08/26 12:23:27;;;;;;;7.05;6.40;;;28.40;97.90;;;;;;5069425;28;20227;-51
2022/08/26 12:26:05;;;;;;;7.43;6.57;;;28.30;99.60;;;;;;5057984;28;20205;-51
2022/08/26 12:28:33;;;;;;;8.85;7.53;;;28.40;99.90;;;;;;5060321;28;20638;-52
2022/08/26 12:31:03;;;;;;;9.32;7.90;;;28.50;99.90;;;;;;5064727;28;20254;-52
2022/08/26 12:33:34;;;;;;;10.23;8.20;;;28.60;99.90;;;;;;5061561;28;20286;-52
2022/08/26 12:36:04;;;;;;;12.27;7.80;;;28.70;99.90;;;;;;5068855;28;20209;-52
2022/08/26 12:38:35;;;;;;;11.75;8.27;;;29.00;99.90;;;;;;5069213;28;20205;-53
2022/08/26 12:41:03;;;;;;;10.65;9.20;;;29.30;99.90;;;;;;5068821;28;21003;-53
2022/08/26 12:43:43;;;;;;;13.32;10.68;;;29.30;99.90;;;;;;5067627;28;20229;-52
2022/08/26 12:46:14;;;;;;;15.70;11.40;;;29.50;99.90;;;;;;5068849;28;20246;-52
2022/08/26 12:48:48;;;;;;;14.82;11.40;;;29.60;99.90;;;;;;5064929;28;20739;-52
2022/08/26 12:51:23;;;;;;;13.00;11.68;;;29.60;99.90;;;;;;5069202;28;20204;-52
2022/08/26 12:53:52;;;;;;;15.02;12.15;;;29.70;99.90;;;;;;5067492;28;20283;-52
2022/08/26 12:56:29;;;;;;;15.07;11.93;;;29.70;99.90;;;;;;5068939;28;20208;-52
2022/08/26 12:59:03;;;;;;;16.83;10.63;;;29.60;99.90;;;;;;5068455;28;20205;-52
2022/08/26 13:01:38;;;;;;;12.07;10.85;;;29.70;99.90;;;;;;5068988;28;20262;-52
2022/08/26 13:04:07;;;;;;;11.45;10.32;;;29.70;99.90;;;;;;5068547;28;20282;-51
2022/08/26 13:06:36;;;;;;;13.27;11.10;;;29.60;99.90;;;;;;5065746;28;20259;-51